Apalachin, New York
Current Conditions -  °F | °C
As of 10:53 AM on Thursday 23 Oct 2014 (Local Time) from KBGM Reporting Station
Overcast Overcast  
Wind Chill: 35°   Ceiling: 800
Heat Index: 43°   Visibility: 10mi
Dew Point: 39°   Wind: 16mph
Humidity: 86%   Direction: 340°NNW
Pressure: 29.89"   Gusts: 22mph
Location:  42.07°N, 76.15°W
Report Text: KBGM 231453Z 34014G19KT 10SM OVC008 06/04 A2989 RMK AO2 SLP130 T00610039 58004
Loading
Personal Weather Stations






























Interactive Weather Map
Tropical Storm Tracking
New forecast layout! Learn more

10-Day Weather Forecast

Advertisements
Track Severe Weather on mobile